Time;durP1;ratioP1;P1;durP2;ratioP2;P2;SDS_P1;SDS_P2;PMS_P1;PMS_P2;Temp;Humidity;BMP_temperature;BMP_pressure;BME280_temperature;BME280_humidity;BME280_pressure;Samples;Min_cycle;Max_cycle;Signal;HPM_P1;HPM_P2
2022/07/27 00:01:23;;;;;;;23.90;14.85;;;21.80;99.90;22.00;98167.00;;;;5006584;28;87785;-60
2022/07/27 00:03:49;;;;;;;22.20;14.00;;;21.80;99.90;22.00;98164.00;;;;5009780;28;87444;-60
2022/07/27 00:06:15;;;;;;;21.98;14.35;;;21.80;99.90;22.00;98162.00;;;;4997024;28;87813;-60
2022/07/27 00:08:41;;;;;;;26.25;13.70;;;21.80;99.90;22.00;98156.00;;;;4978739;28;87411;-60
2022/07/27 00:11:08;;;;;;;20.48;13.55;;;21.70;99.90;22.00;98161.00;;;;5013696;28;87139;-60
2022/07/27 00:13:34;;;;;;;20.52;15.52;;;21.80;99.90;22.00;98161.00;;;;5018385;28;89010;-60
2022/07/27 00:16:01;;;;;;;19.95;15.00;;;21.80;99.90;22.00;98171.00;;;;4991392;28;89490;-60
2022/07/27 00:18:27;;;;;;;19.70;15.18;;;21.80;99.90;22.00;98169.00;;;;5009960;28;87366;-60
2022/07/27 00:20:53;;;;;;;23.00;15.57;;;21.80;99.90;22.00;98169.00;;;;5014777;28;87166;-60
2022/07/27 00:23:19;;;;;;;19.25;14.70;;;21.80;99.90;22.00;98172.00;;;;5006972;28;87741;-60
2022/07/27 00:25:46;;;;;;;20.73;15.65;;;21.80;99.90;22.00;98172.00;;;;5012535;28;87765;-60
2022/07/27 00:28:12;;;;;;;18.67;16.15;;;21.80;99.90;22.10;98175.00;;;;4994635;28;87161;-60
2022/07/27 00:30:38;;;;;;;23.83;15.85;;;21.80;99.90;22.00;98164.00;;;;4988575;28;86805;-60
2022/07/27 00:33:05;;;;;;;23.50;15.68;;;21.80;99.90;22.00;98159.00;;;;4966986;28;88722;-60
2022/07/27 00:35:31;;;;;;;21.00;16.08;;;21.70;99.90;22.00;98171.00;;;;5011300;28;87367;-60
2022/07/27 00:37:58;;;;;;;24.48;16.70;;;21.80;99.90;22.00;98169.00;;;;5005924;28;88312;-60
2022/07/27 00:40:24;;;;;;;19.55;15.93;;;21.70;99.90;21.90;98158.00;;;;5011773;28;86985;-60
2022/07/27 00:42:50;;;;;;;21.48;15.60;;;21.80;99.90;21.90;98160.00;;;;5003143;28;87629;-60
2022/07/27 00:45:16;;;;;;;18.67;15.43;;;21.70;99.90;21.90;98161.00;;;;5006450;28;86987;-60
2022/07/27 00:47:43;;;;;;;19.80;15.30;;;21.70;99.90;21.90;98163.00;;;;5010909;28;87617;-60
2022/07/27 00:50:09;;;;;;;20.15;16.35;;;21.70;99.90;21.80;98168.00;;;;5005661;28;87238;-59
2022/07/27 00:52:37;;;;;;;21.65;16.48;;;21.60;99.90;21.90;98172.00;;;;4984689;28;88154;-59
2022/07/27 00:55:04;;;;;;;18.55;16.00;;;21.70;99.90;21.80;98174.00;;;;4963581;28;88495;-59
2022/07/27 00:57:31;;;;;;;19.00;16.88;;;21.60;99.90;21.80;98185.00;;;;4982289;28;87180;-59
2022/07/27 00:59:57;;;;;;;20.15;16.48;;;21.60;99.90;21.90;98176.00;;;;4985539;28;87059;-58
2022/07/27 01:02:25;;;;;;;20.02;16.08;;;21.60;99.90;21.80;98174.00;;;;4994051;28;89173;-59
2022/07/27 01:04:51;;;;;;;16.95;15.23;;;21.60;99.90;21.80;98183.00;;;;4990517;28;88224;-58
2022/07/27 01:07:17;;;;;;;21.20;16.80;;;21.60;99.90;21.80;98184.00;;;;4995810;28;87346;-59
2022/07/27 01:09:57;;;;;;;20.05;16.58;;;21.60;99.90;21.80;98179.00;;;;4987544;28;87308;-63
2022/07/27 01:12:30;;;;;;;26.90;17.67;;;21.50;99.90;21.60;98185.00;;;;4990466;28;88140;-60
2022/07/27 01:14:58;;;;;;;20.20;16.85;;;21.50;99.90;21.60;98193.00;;;;4994232;28;87429;-58
2022/07/27 01:17:26;;;;;;;22.65;16.92;;;21.50;99.90;21.70;98180.00;;;;4993044;28;87423;-58
2022/07/27 01:19:52;;;;;;;22.65;17.02;;;21.50;99.90;21.60;98194.00;;;;4983817;28;86790;-58
2022/07/27 01:22:19;;;;;;;20.08;16.83;;;21.40;99.90;21.60;98183.00;;;;4986541;28;87756;-58
2022/07/27 01:24:45;;;;;;;23.38;17.33;;;21.40;99.90;21.60;98184.00;;;;4990171;28;87311;-58
2022/07/27 01:27:11;;;;;;;21.00;16.67;;;21.40;99.90;21.60;98186.00;;;;4995799;28;88044;-58
2022/07/27 01:29:37;;;;;;;21.98;17.20;;;21.40;99.90;21.60;98189.00;;;;4995305;28;86977;-58
2022/07/27 01:32:04;;;;;;;21.60;17.02;;;21.30;99.90;21.50;98193.00;;;;4986422;28;87568;-58
2022/07/27 01:34:34;;;;;;;27.08;17.83;;;21.30;99.90;21.50;98192.00;;;;4985842;28;87544;-58
2022/07/27 01:37:01;;;;;;;22.50;17.90;;;21.30;99.90;21.40;98191.00;;;;4967550;28;87434;-58
2022/07/27 01:39:28;;;;;;;28.92;18.20;;;21.20;99.90;21.40;98188.00;;;;4987227;28;87004;-58
2022/07/27 01:41:54;;;;;;;24.38;18.88;;;21.20;99.90;21.40;98185.00;;;;4986569;28;87645;-58
2022/07/27 01:44:20;;;;;;;25.10;19.73;;;21.10;99.90;21.30;98192.00;;;;4989139;28;87557;-58
2022/07/27 01:46:46;;;;;;;22.50;18.65;;;21.10;99.90;21.20;98194.00;;;;4981029;28;87421;-58
2022/07/27 01:49:12;;;;;;;24.05;19.10;;;21.10;99.90;21.20;98193.00;;;;4989469;28;87624;-58
2022/07/27 01:51:38;;;;;;;23.38;19.50;;;21.10;99.90;21.30;98195.00;;;;4987748;28;89312;-58
2022/07/27 01:54:05;;;;;;;24.65;18.98;;;21.10;99.90;21.40;98193.00;;;;5012371;28;88342;-59
2022/07/27 01:56:31;;;;;;;21.88;19.55;;;21.10;99.90;21.40;98198.00;;;;5012187;28;87088;-58
2022/07/27 01:58:58;;;;;;;23.63;19.52;;;21.20;99.90;21.40;98192.00;;;;4986133;28;87463;-59
2022/07/27 02:01:25;;;;;;;28.67;20.00;;;21.20;99.90;21.40;98188.00;;;;5003970;28;87664;-59
2022/07/27 02:03:51;;;;;;;23.90;19.95;;;21.20;99.90;21.40;98193.00;;;;5009263;28;87472;-58
2022/07/27 02:06:17;;;;;;;24.40;20.33;;;21.20;99.90;21.40;98191.00;;;;5007683;28;87074;-59
2022/07/27 02:08:44;;;;;;;22.77;20.48;;;21.20;99.90;21.40;98202.00;;;;5004298;28;87162;-59
2022/07/27 02:13:55;;;;;;;29.85;20.85;;;21.20;99.90;21.50;98204.00;;;;5008882;28;87363;-58
2022/07/27 02:16:21;;;;;;;24.17;20.65;;;21.30;99.90;21.50;98193.00;;;;5013101;28;88030;-58
2022/07/27 02:18:47;;;;;;;23.13;20.60;;;21.30;99.90;21.60;98185.00;;;;5009092;28;87013;-59
2022/07/27 02:21:13;;;;;;;27.48;21.20;;;21.30;99.90;21.60;98181.00;;;;5015045;28;87779;-59
2022/07/27 02:23:41;;;;;;;26.20;20.55;;;21.40;99.90;21.70;98192.00;;;;5011427;28;88762;-59
2022/07/27 02:26:08;;;;;;;21.33;19.20;;;21.50;99.90;21.80;98198.00;;;;4989308;28;87021;-59
2022/07/27 02:28:35;;;;;;;20.70;18.58;;;21.60;99.90;22.20;98201.00;;;;5000173;28;86983;-59
2022/07/27 02:31:02;;;;;;;25.02;19.90;;;21.90;99.90;22.60;98184.00;;;;5004386;28;87814;-58
2022/07/27 02:33:28;;;;;;;22.65;19.27;;;22.30;99.90;23.00;98183.00;;;;5020057;28;86583;-58
2022/07/27 02:35:54;;;;;;;20.13;17.42;;;22.60;99.90;23.50;98189.00;;;;5007953;28;87404;-59
2022/07/27 02:38:21;;;;;;;21.60;18.98;;;23.00;99.90;23.90;98198.00;;;;4991701;28;88194;-59
2022/07/27 02:40:47;;;;;;;24.45;19.30;;;23.40;99.90;24.30;98204.00;;;;4983285;28;89748;-59
2022/07/27 02:43:13;;;;;;;27.83;19.77;;;23.80;99.90;24.60;98196.00;;;;5015804;28;88293;-59
2022/07/27 02:45:39;;;;;;;22.23;19.80;;;24.10;99.90;24.80;98198.00;;;;5002866;28;87039;-59
2022/07/27 02:48:05;;;;;;;26.30;21.33;;;24.40;99.90;25.00;98194.00;;;;5004308;28;87136;-59
2022/07/27 02:50:32;;;;;;;24.02;19.77;;;24.50;99.90;25.20;98192.00;;;;4990603;28;90095;-59
2022/07/27 02:52:58;;;;;;;22.98;20.13;;;24.70;99.90;25.50;98196.00;;;;4991348;28;88284;-59
2022/07/27 02:55:24;;;;;;;23.88;19.10;;;25.00;99.90;25.80;98204.00;;;;4990028;28;87237;-59
2022/07/27 02:57:50;;;;;;;24.83;18.17;;;25.20;99.90;26.20;98200.00;;;;5001843;28;86290;-59
2022/07/27 03:00:16;;;;;;;29.33;19.33;;;25.50;99.90;26.30;98201.00;;;;5004444;28;87723;-59
2022/07/27 03:02:48;;;;;;;23.77;18.50;;;25.70;99.90;26.60;98208.00;;;;5009561;28;88918;-58
2022/07/27 03:05:14;;;;;;;32.05;19.52;;;26.00;99.90;26.80;98204.00;;;;5006090;28;88400;-58
2022/07/27 06:31:29;;;;;;;24.40;17.88;;;29.50;99.90;29.60;98242.00;;;;4984986;28;88187;-59
2022/07/27 06:33:56;;;;;;;25.85;18.55;;;29.10;99.90;29.50;98239.00;;;;4986656;28;87535;-60
2022/07/27 06:36:23;;;;;;;20.85;17.63;;;29.10;99.90;29.40;98240.00;;;;4986665;28;87734;-60
2022/07/27 06:38:49;;;;;;;24.85;18.70;;;29.10;99.90;29.30;98249.00;;;;4986464;28;87705;-60
2022/07/27 06:41:16;;;;;;;24.95;18.90;;;28.90;99.90;29.20;98255.00;;;;4982695;28;86871;-60
2022/07/27 06:43:42;;;;;;;21.98;19.23;;;28.80;99.90;29.10;98250.00;;;;4987795;28;87045;-60
2022/07/27 06:46:11;;;;;;;27.75;19.17;;;28.80;99.90;29.20;98255.00;;;;4954567;28;87417;-60
2022/07/27 06:48:39;;;;;;;24.15;18.95;;;28.90;99.90;29.30;98257.00;;;;4982606;28;88514;-59
2022/07/27 06:51:05;;;;;;;22.63;19.52;;;28.90;99.90;29.30;98259.00;;;;4984564;28;88196;-58
2022/07/27 06:53:32;;;;;;;24.15;18.40;;;28.90;99.90;29.30;98266.00;;;;4994744;28;87567;-60
2022/07/27 06:56:02;;;;;;;24.85;18.85;;;29.00;99.90;29.10;98264.00;;;;4991263;28;87006;-58
2022/07/27 06:58:31;;;;;;;24.20;18.33;;;28.80;99.90;29.20;98266.00;;;;4984082;28;89858;-60
2022/07/27 07:01:00;;;;;;;29.90;18.65;;;28.90;99.90;29.30;98263.00;;;;4984505;28;87467;-59
2022/07/27 07:03:28;;;;;;;30.33;19.50;;;28.90;99.90;29.10;98278.00;;;;4984137;28;86942;-59
2022/07/27 07:05:54;;;;;;;20.48;17.67;;;28.80;99.90;29.20;98266.00;;;;4987920;28;86830;-60
2022/07/27 07:08:21;;;;;;;23.30;17.00;;;28.80;99.90;29.20;98265.00;;;;4982794;28;87694;-60
2022/07/27 07:10:49;;;;;;;30.92;18.77;;;28.90;99.90;29.30;98279.00;;;;4984907;28;87180;-58
2022/07/27 07:13:16;;;;;;;19.75;17.83;;;29.00;99.90;29.40;98261.00;;;;4982263;28;88404;-57
2022/07/27 07:15:43;;;;;;;23.58;18.63;;;29.10;99.90;29.40;98272.00;;;;4988405;28;87213;-58
2022/07/27 07:18:10;;;;;;;25.20;19.35;;;29.10;99.90;29.30;98271.00;;;;4983996;28;87846;-56
2022/07/27 07:20:37;;;;;;;20.60;18.50;;;28.90;99.90;29.30;98267.00;;;;4972344;28;87410;-59
2022/07/27 07:23:04;;;;;;;22.27;18.95;;;28.90;99.90;29.30;98265.00;;;;4991443;28;87537;-59
2022/07/27 07:25:32;;;;;;;25.23;18.25;;;29.00;99.90;29.50;98273.00;;;;4980917;28;87073;-58
2022/07/27 07:27:59;;;;;;;21.52;18.92;;;29.20;99.90;29.60;98273.00;;;;4979958;28;87645;-58
2022/07/27 07:30:26;;;;;;;23.45;18.70;;;29.20;99.90;29.50;98270.00;;;;4987277;28;87287;-58
2022/07/27 07:32:53;;;;;;;22.75;19.10;;;29.10;99.90;29.50;98274.00;;;;4987696;28;87556;-59
2022/07/27 07:35:19;;;;;;;20.75;18.60;;;29.10;99.90;29.60;98279.00;;;;4987013;28;87039;-61
2022/07/27 07:37:45;;;;;;;20.60;18.48;;;29.20;99.90;29.70;98272.00;;;;4982875;28;88801;-59
2022/07/27 07:40:11;;;;;;;25.92;18.92;;;29.30;99.90;29.60;98274.00;;;;4981325;28;90902;-61
2022/07/27 07:42:55;;;;;;;28.05;19.25;;;29.20;99.90;29.50;98271.00;;;;4980043;28;87093;-62
2022/07/27 07:45:22;;;;;;;29.75;19.00;;;29.20;99.90;29.50;98271.00;;;;4990075;28;87156;-62
2022/07/27 07:47:50;;;;;;;23.23;19.13;;;29.10;99.90;29.60;98283.00;;;;4991538;28;88642;-62
2022/07/27 07:50:17;;;;;;;24.77;18.80;;;29.30;99.90;29.70;98280.00;;;;4984154;28;88600;-61
2022/07/27 07:52:43;;;;;;;22.55;18.98;;;29.40;99.90;29.80;98281.00;;;;4982858;28;86925;-62
2022/07/27 07:55:10;;;;;;;26.42;18.83;;;29.50;99.90;30.00;98284.00;;;;4984498;28;86253;-62
2022/07/27 07:57:37;;;;;;;28.50;17.00;;;29.60;99.90;30.00;98287.00;;;;4983235;28;88186;-62
2022/07/27 08:00:06;;;;;;;24.98;17.38;;;29.70;99.90;30.00;98280.00;;;;4976671;28;88284;-62
2022/07/27 08:02:53;;;;;;;21.48;18.10;;;29.60;99.90;30.00;98284.00;;;;4980193;28;88263;-62
2022/07/27 08:05:20;;;;;;;28.30;17.83;;;29.50;99.90;30.00;98288.00;;;;4984091;28;86964;-62
2022/07/27 08:07:48;;;;;;;22.80;17.92;;;29.60;99.90;30.00;98285.00;;;;4984620;28;87695;-61
2022/07/27 08:10:17;;;;;;;22.63;17.70;;;29.60;99.90;30.10;98289.00;;;;4989802;28;87596;-61
2022/07/27 08:12:46;;;;;;;24.92;18.17;;;29.70;99.90;30.00;98284.00;;;;4986584;28;87442;-61
2022/07/27 08:15:15;;;;;;;20.98;17.08;;;29.60;99.90;29.90;98285.00;;;;4964125;28;87634;-62
2022/07/27 08:17:42;;;;;;;24.33;15.45;;;29.50;99.90;30.00;98280.00;;;;4967445;28;89348;-62
2022/07/27 08:20:09;;;;;;;19.05;15.75;;;29.60;99.90;30.10;98274.00;;;;4995262;28;87374;-62
2022/07/27 08:22:37;;;;;;;19.30;15.45;;;29.70;99.90;30.10;98281.00;;;;4966094;28;87443;-62
2022/07/27 08:25:04;;;;;;;17.55;15.73;;;29.70;99.90;30.10;98280.00;;;;4992580;28;87864;-62
2022/07/27 08:27:31;;;;;;;17.17;15.38;;;29.80;99.90;30.30;98271.00;;;;4985100;28;88901;-62
2022/07/27 08:29:57;;;;;;;18.17;16.35;;;30.00;99.90;30.40;98282.00;;;;4995449;28;89913;-62
2022/07/27 08:32:23;;;;;;;19.92;14.80;;;29.90;99.90;30.50;98269.00;;;;5005819;28;87257;-62
2022/07/27 08:34:51;;;;;;;16.65;14.45;;;30.00;99.90;30.50;98279.00;;;;5009569;28;87454;-62
2022/07/27 08:37:17;;;;;;;17.60;15.02;;;30.10;99.90;30.50;98266.00;;;;5010823;28;87997;-62
2022/07/27 08:39:43;;;;;;;19.05;14.52;;;30.00;99.90;30.40;98270.00;;;;5011166;28;88585;-62
2022/07/27 08:42:10;;;;;;;17.90;13.93;;;30.00;99.90;30.40;98267.00;;;;4989401;28;87151;-63
2022/07/27 08:44:40;;;;;;;16.70;14.07;;;30.00;99.90;30.50;98273.00;;;;5008618;28;86576;-62
2022/07/27 08:47:13;;;;;;;17.20;14.90;;;30.10;99.90;30.60;98271.00;;;;5003535;28;87140;-62
2022/07/27 08:49:40;;;;;;;15.73;14.23;;;30.20;99.90;30.70;98271.00;;;;5003637;28;87410;-62
2022/07/27 08:52:09;;;;;;;15.75;14.10;;;30.20;99.90;30.70;98281.00;;;;5009513;28;88211;-62
2022/07/27 08:54:41;;;;;;;18.05;15.20;;;30.30;99.90;30.90;98275.00;;;;4974141;28;87829;-62
2022/07/27 08:57:08;;;;;;;15.40;13.90;;;30.50;99.90;31.00;98268.00;;;;4988386;28;87729;-61
2022/07/27 08:59:35;;;;;;;18.10;13.40;;;30.60;99.90;31.00;98274.00;;;;4981568;28;88994;-62
2022/07/27 09:02:03;;;;;;;19.35;13.70;;;30.60;99.90;31.10;98270.00;;;;5003667;28;87251;-62
2022/07/27 09:04:31;;;;;;;19.08;14.85;;;30.60;99.90;31.00;98278.00;;;;5006774;28;88002;-61
2022/07/27 09:06:57;;;;;;;17.90;14.05;;;30.50;99.90;31.00;98285.00;;;;5005356;28;87732;-61
2022/07/27 09:09:23;;;;;;;15.73;13.45;;;30.40;99.90;31.00;98283.00;;;;5005170;28;87390;-62
2022/07/27 09:12:09;;;;;;;17.23;14.70;;;30.60;99.90;31.30;98273.00;;;;4993400;28;87161;-62
2022/07/27 09:14:40;;;;;;;16.83;15.00;;;30.70;99.90;31.10;98271.00;;;;5018357;28;87042;-61
2022/07/27 09:17:25;;;;;;;16.50;15.00;;;30.60;99.90;31.00;98275.00;;;;5012239;28;89973;-61
2022/07/27 09:19:58;;;;;;;18.52;15.88;;;30.50;99.90;31.00;98274.00;;;;5004091;28;88181;-61
2022/07/27 09:22:58;;;;;;;22.98;16.65;;;30.60;99.90;31.00;98274.00;;;;5005412;28;87365;-61
2022/07/27 09:25:30;;;;;;;18.95;16.60;;;30.50;99.90;31.10;98272.00;;;;5009976;28;86954;-62
2022/07/27 09:27:58;;;;;;;22.60;16.50;;;30.60;99.90;31.10;98287.00;;;;5004526;28;89708;-61
2022/07/27 09:30:26;;;;;;;26.55;16.15;;;30.70;99.90;31.20;98288.00;;;;4994235;28;87886;-61
2022/07/27 09:33:02;;;;;;;18.42;16.70;;;30.80;99.90;31.20;98289.00;;;;4987233;28;87486;-61
2022/07/27 09:35:34;;;;;;;23.05;17.08;;;30.70;99.90;31.20;98288.00;;;;5006123;28;86907;-61
2022/07/27 09:38:19;;;;;;;24.40;17.98;;;30.60;99.90;31.30;98295.00;;;;4996517;28;89648;-61
2022/07/27 09:40:48;;;;;;;19.85;17.67;;;30.70;99.90;31.30;98284.00;;;;4997053;28;88085;-63
2022/07/27 09:43:15;;;;;;;19.95;16.55;;;30.80;99.90;31.50;98298.00;;;;4994654;28;88044;-61
2022/07/27 09:45:42;;;;;;;17.88;14.63;;;31.10;99.90;31.60;98279.00;;;;4987633;28;86974;-61
2022/07/27 09:48:15;;;;;;;16.85;15.00;;;31.00;99.90;31.70;98285.00;;;;5002201;28;88606;-61
2022/07/27 09:50:58;;;;;;;18.60;13.90;;;31.20;99.90;32.00;98283.00;;;;5006233;28;87462;-61
2022/07/27 09:53:28;;;;;;;15.98;13.90;;;31.40;99.90;32.10;98271.00;;;;5011438;28;87660;-62
2022/07/27 09:56:06;;;;;;;15.97;14.30;;;31.50;99.90;32.20;98284.00;;;;4986351;28;87352;-62
2022/07/27 09:58:48;;;;;;;14.95;13.43;;;31.50;99.90;31.90;98289.00;;;;5001133;28;88495;-62
2022/07/27 10:01:47;;;;;;;16.23;14.50;;;31.30;99.90;31.80;98280.00;;;;5015653;28;87158;-62
2022/07/27 10:04:13;;;;;;;19.88;16.10;;;31.20;99.90;31.50;98300.00;;;;4969911;28;87132;-61
2022/07/27 10:06:40;;;;;;;15.63;14.07;;;30.90;99.90;31.10;98301.00;;;;4989432;28;87441;-62
2022/07/27 10:09:06;;;;;;;19.65;15.05;;;30.60;99.90;31.10;98298.00;;;;5003354;28;89089;-62
2022/07/27 10:11:32;;;;;;;22.85;15.55;;;30.50;99.90;31.00;98288.00;;;;5010004;28;88286;-61
2022/07/27 10:13:59;;;;;;;25.25;17.60;;;30.40;99.90;30.90;98285.00;;;;4997682;28;87046;-61
2022/07/27 10:16:30;;;;;;;19.65;16.00;;;30.30;99.90;30.80;98288.00;;;;4976453;28;88392;-62
2022/07/27 10:19:19;;;;;;;19.95;16.33;;;30.20;99.90;30.70;98290.00;;;;4995156;28;87527;-61
2022/07/27 10:21:46;;;;;;;19.90;15.57;;;30.20;99.90;30.70;98292.00;;;;4995922;28;87423;-61
2022/07/27 10:24:35;;;;;;;21.13;15.70;;;30.10;99.90;30.80;98290.00;;;;5012497;28;87644;-61
2022/07/27 10:27:26;;;;;;;17.83;16.00;;;30.30;99.90;31.10;98291.00;;;;5010032;28;86408;-61
2022/07/27 10:29:54;;;;;;;22.35;15.77;;;30.60;99.90;31.50;98288.00;;;;5003896;28;87368;-62
2022/07/27 10:32:29;;;;;;;22.20;15.32;;;30.90;99.90;31.60;98288.00;;;;5004117;28;87080;-61
2022/07/27 10:34:56;;;;;;;18.40;15.23;;;31.00;99.90;31.40;98289.00;;;;4983296;28;87934;-60
2022/07/27 10:37:33;;;;;;;16.98;15.05;;;30.90;99.90;31.50;98289.00;;;;5009600;28;87010;-60
2022/07/27 10:43:23;;;;;;;18.75;16.50;;;31.00;99.90;31.60;98282.00;;;;5004012;28;89475;-59
2022/07/27 10:45:51;;;;;;;18.02;15.25;;;31.00;99.90;31.70;98270.00;;;;5001429;28;87273;-60
2022/07/27 10:48:41;;;;;;;16.30;14.63;;;31.20;99.90;31.70;98281.00;;;;5003049;28;87442;-59
2022/07/27 10:51:09;;;;;;;16.55;14.85;;;31.20;99.90;31.80;98272.00;;;;5007285;28;87772;-61
2022/07/27 10:53:39;;;;;;;15.93;14.43;;;31.30;99.90;31.90;98275.00;;;;5005348;28;88632;-61
2022/07/27 10:56:07;;;;;;;17.45;14.40;;;31.30;99.90;31.90;98265.00;;;;4992455;28;87564;-59
2022/07/27 10:58:33;;;;;;;17.60;15.68;;;31.40;99.90;32.20;98281.00;;;;5016707;28;87548;-60
2022/07/27 11:01:06;;;;;;;16.38;14.70;;;31.50;99.90;32.20;98289.00;;;;5013457;28;88697;-61
2022/07/27 11:03:38;;;;;;;16.70;14.70;;;31.50;99.90;32.10;98281.00;;;;5003898;28;89366;-61
2022/07/27 11:06:17;;;;;;;22.73;16.20;;;31.50;99.90;32.10;98275.00;;;;4987545;28;87443;-61
2022/07/27 11:08:46;;;;;;;17.35;15.50;;;31.40;99.90;32.00;98274.00;;;;4989203;28;86995;-61
2022/07/27 11:11:24;;;;;;;16.15;14.45;;;31.50;99.90;32.20;98267.00;;;;5004327;28;87449;-61
2022/07/27 11:13:58;;;;;;;16.65;14.93;;;31.60;99.90;32.40;98273.00;;;;4997687;28;89144;-61
2022/07/27 11:16:27;;;;;;;19.73;15.50;;;31.70;99.90;32.30;98264.00;;;;5006276;28;87664;-61
2022/07/27 11:19:02;;;;;;;17.13;14.35;;;31.60;99.90;32.00;98267.00;;;;5012391;28;86204;-61
2022/07/27 11:21:34;;;;;;;17.25;15.38;;;31.40;99.90;31.70;98266.00;;;;4983664;28;87809;-61
2022/07/27 11:24:10;;;;;;;17.92;15.18;;;31.20;99.90;31.60;98262.00;;;;5003674;28;87292;-61
2022/07/27 11:26:46;;;;;;;18.10;15.20;;;31.00;99.90;31.70;98257.00;;;;4990678;28;88883;-60
2022/07/27 11:29:14;;;;;;;18.30;14.80;;;31.20;99.90;32.00;98262.00;;;;4992999;28;87449;-61
2022/07/27 11:31:43;;;;;;;18.90;14.18;;;31.40;99.90;32.20;98270.00;;;;5002994;28;87827;-61
2022/07/27 11:34:12;;;;;;;16.08;14.38;;;31.50;99.90;32.00;98268.00;;;;4999054;28;87608;-61
2022/07/27 11:36:42;;;;;;;15.60;13.60;;;31.20;99.90;31.60;98274.00;;;;5004821;28;87328;-62
2022/07/27 11:39:13;;;;;;;15.60;13.93;;;31.00;99.90;31.30;98266.00;;;;5015495;28;87152;-62
2022/07/27 11:41:41;;;;;;;16.30;14.07;;;30.70;99.90;31.10;98258.00;;;;4999705;28;88861;-62
2022/07/27 11:44:16;;;;;;;17.02;13.20;;;30.50;99.90;30.90;98255.00;;;;5006074;28;88569;-61
2022/07/27 11:46:44;;;;;;;15.25;13.48;;;30.30;99.90;30.70;98262.00;;;;5004982;28;87389;-61
2022/07/27 11:49:16;;;;;;;15.85;14.15;;;30.10;99.90;30.50;98263.00;;;;5006330;28;87459;-61
2022/07/27 11:51:48;;;;;;;17.70;13.85;;;29.90;99.90;30.30;98256.00;;;;5007295;28;88767;-63
2022/07/27 11:54:28;;;;;;;20.00;13.73;;;29.80;99.90;30.00;98273.00;;;;5009367;28;88303;-61
2022/07/27 11:57:05;;;;;;;17.67;13.77;;;29.50;99.90;29.80;98262.00;;;;5009933;28;87965;-59
2022/07/27 11:59:33;;;;;;;17.55;15.75;;;29.30;99.90;29.60;98249.00;;;;5005226;28;87075;-60
2022/07/27 12:02:09;;;;;;;20.10;15.25;;;29.10;99.90;29.50;98246.00;;;;5013572;28;87540;-60
2022/07/27 12:04:38;;;;;;;18.85;16.77;;;29.00;99.90;29.50;98244.00;;;;4989200;28;88476;-60
2022/07/27 12:07:28;;;;;;;20.40;18.08;;;29.10;99.90;29.70;98251.00;;;;5004366;28;87098;-61
2022/07/27 12:09:58;;;;;;;16.98;15.23;;;29.20;99.90;29.70;98252.00;;;;4990238;28;86237;-60
2022/07/27 12:12:27;;;;;;;17.60;15.75;;;29.20;99.90;29.70;98256.00;;;;5007851;28;87575;-60
2022/07/27 12:14:56;;;;;;;17.88;15.80;;;29.10;99.90;29.40;98246.00;;;;5003216;28;87383;-60
2022/07/27 12:17:33;;;;;;;18.30;16.05;;;28.80;99.90;29.20;98252.00;;;;5014591;28;88046;-61
2022/07/27 12:20:16;;;;;;;18.85;16.45;;;28.70;99.90;29.00;98245.00;;;;5015796;28;87545;-61
2022/07/27 12:22:43;;;;;;;18.25;15.77;;;28.50;99.90;28.90;98244.00;;;;5014933;28;87803;-61
2022/07/27 12:25:24;;;;;;;18.40;16.52;;;28.40;99.90;28.90;98236.00;;;;5010722;28;88424;-61
2022/07/27 12:28:05;;;;;;;18.52;16.67;;;28.40;99.90;29.00;98246.00;;;;5011344;28;87261;-61
2022/07/27 12:30:49;;;;;;;18.35;16.02;;;28.40;99.90;29.10;98235.00;;;;5010433;28;87355;-60
2022/07/27 12:33:37;;;;;;;19.05;16.63;;;28.60;99.90;29.40;98237.00;;;;5005113;28;88158;-61
2022/07/27 12:36:08;;;;;;;19.77;17.00;;;28.70;99.90;29.50;98238.00;;;;5007404;28;87328;-61
2022/07/27 12:38:39;;;;;;;21.48;18.80;;;28.90;99.90;29.70;98241.00;;;;5014177;28;87034;-61
2022/07/27 12:41:06;;;;;;;18.83;16.88;;;29.10;99.90;29.80;98231.00;;;;4972411;28;87483;-60
2022/07/27 12:43:32;;;;;;;20.20;16.50;;;29.20;99.90;29.80;98225.00;;;;5006141;28;88511;-60
2022/07/27 12:46:09;;;;;;;18.65;16.17;;;29.20;99.90;30.00;98221.00;;;;4988213;28;88407;-61
2022/07/27 12:48:41;;;;;;;19.23;15.38;;;29.40;99.90;29.80;98212.00;;;;4971123;28;87231;-61
2022/07/27 12:51:09;;;;;;;18.67;16.80;;;29.10;99.90;29.50;98206.00;;;;5009772;28;87196;-60
2022/07/27 12:53:37;;;;;;;18.17;16.25;;;28.90;99.90;29.30;98213.00;;;;5011090;28;88600;-60
2022/07/27 12:56:08;;;;;;;20.35;17.33;;;28.80;99.90;29.20;98214.00;;;;4982323;28;87617;-61
2022/07/27 12:58:36;;;;;;;18.65;16.52;;;28.70;99.90;29.20;98206.00;;;;5003771;28;87358;-60
2022/07/27 13:01:05;;;;;;;22.17;17.58;;;28.70;99.90;29.10;98202.00;;;;5005658;28;86750;-60
2022/07/27 13:03:31;;;;;;;21.10;16.45;;;28.70;99.90;29.00;98198.00;;;;4995719;28;88066;-60
2022/07/27 13:05:57;;;;;;;19.80;16.50;;;28.60;99.90;29.00;98196.00;;;;4970085;28;87348;-62
2022/07/27 13:08:23;;;;;;;19.95;16.25;;;28.60;99.90;29.10;98210.00;;;;4986671;28;88087;-61
2022/07/27 13:10:53;;;;;;;21.08;16.45;;;28.60;99.90;29.10;98205.00;;;;5006991;28;88231;-61
2022/07/27 13:13:23;;;;;;;20.65;18.23;;;28.70;99.90;29.20;98205.00;;;;4995555;28;88047;-60
2022/07/27 13:15:49;;;;;;;23.27;17.60;;;28.70;99.90;29.20;98216.00;;;;5014423;28;87216;-62
2022/07/27 13:18:15;;;;;;;19.58;17.50;;;28.70;99.90;29.10;98213.00;;;;4994453;28;87459;-60
2022/07/27 13:20:42;;;;;;;19.25;17.25;;;28.60;99.90;29.10;98219.00;;;;5002320;28;87012;-60
2022/07/27 13:23:08;;;;;;;19.83;17.75;;;28.60;99.90;29.20;98212.00;;;;4953065;28;88732;-61
2022/07/27 13:25:34;;;;;;;20.88;17.75;;;28.70;99.90;29.30;98208.00;;;;5004381;28;87451;-62
2022/07/27 13:28:00;;;;;;;19.25;17.35;;;28.80;99.90;29.50;98205.00;;;;4974576;28;87127;-62
2022/07/27 13:30:27;;;;;;;19.27;16.45;;;29.10;99.90;29.80;98212.00;;;;4992782;28;87157;-62
2022/07/27 13:32:53;;;;;;;21.30;18.83;;;29.30;99.90;30.10;98194.00;;;;5002954;28;89652;-61
2022/07/27 13:35:19;;;;;;;20.13;16.85;;;29.60;99.90;30.30;98195.00;;;;5005226;28;88348;-62
2022/07/27 13:37:45;;;;;;;19.40;16.65;;;29.70;99.90;30.30;98196.00;;;;5007600;28;87234;-62
2022/07/27 13:40:13;;;;;;;27.52;17.10;;;29.70;99.90;30.30;98194.00;;;;4984390;28;87901;-61
2022/07/27 13:42:39;;;;;;;22.48;17.10;;;29.70;99.90;30.50;98187.00;;;;4980921;28;88338;-62
2022/07/27 13:45:06;;;;;;;19.60;16.40;;;30.00;99.90;30.80;98192.00;;;;5009909;28;87644;-60
2022/07/27 13:47:33;;;;;;;26.80;16.88;;;30.20;99.90;30.90;98187.00;;;;5006348;28;88125;-60
2022/07/27 13:49:59;;;;;;;20.52;15.57;;;30.30;99.90;31.20;98189.00;;;;5009112;28;86249;-60
2022/07/27 13:52:26;;;;;;;20.90;16.20;;;30.50;99.90;31.40;98175.00;;;;5001682;28;88107;-61
2022/07/27 13:55:03;;;;;;;19.10;15.40;;;30.80;99.90;31.60;98178.00;;;;5008482;28;88392;-61
2022/07/27 13:57:30;;;;;;;17.67;15.65;;;31.00;99.90;31.80;98182.00;;;;5001728;28;88973;-62
2022/07/27 13:59:58;;;;;;;20.23;15.77;;;31.20;99.90;31.70;98186.00;;;;4966093;28;87186;-61
2022/07/27 14:02:24;;;;;;;22.52;15.90;;;31.10;99.90;31.60;98180.00;;;;4980165;28;90023;-61
2022/07/27 14:04:50;;;;;;;19.75;15.77;;;31.10;99.90;31.60;98186.00;;;;4998923;28;88032;-60
2022/07/27 14:07:17;;;;;;;16.88;15.27;;;31.00;99.90;31.60;98189.00;;;;4995247;28;87059;-61
2022/07/27 14:12:29;;;;;;;21.10;15.85;;;30.90;99.90;31.40;98182.00;;;;4985815;28;87736;-61
2022/07/27 14:14:55;;;;;;;22.83;15.90;;;30.80;99.90;31.40;98193.00;;;;4996510;28;87416;-61
2022/07/27 14:17:21;;;;;;;20.17;16.75;;;30.80;99.90;31.30;98195.00;;;;4994976;28;87795;-61
2022/07/27 14:19:48;;;;;;;19.90;16.02;;;30.70;99.90;31.30;98199.00;;;;4996232;28;87692;-61
2022/07/27 14:22:14;;;;;;;21.88;16.05;;;30.70;99.90;31.30;98206.00;;;;4990506;28;89672;-62